sensor_id;sensor_type;location;lat;lon;timestamp;P1;durP1;ratioP1;P2;durP2;ratioP2
20080;SDS011;10200;49.232;9.222;2022-09-09T00:06:50;4.20;;;1.13;;
20080;SDS011;10200;49.232;9.222;2022-09-09T00:09:27;3.30;;;1.43;;
20080;SDS011;10200;49.232;9.222;2022-09-09T00:11:57;2.40;;;1.10;;
20080;SDS011;10200;49.232;9.222;2022-09-09T00:14:55;3.57;;;1.13;;
20080;SDS011;10200;49.232;9.222;2022-09-09T00:20:14;2.40;;;1.13;;
20080;SDS011;10200;49.232;9.222;2022-09-09T00:22:56;3.17;;;1.17;;
20080;SDS011;10200;49.232;9.222;2022-09-09T00:31:33;3.13;;;0.80;;
20080;SDS011;10200;49.232;9.222;2022-09-09T00:34:13;1.97;;;1.17;;
20080;SDS011;10200;49.232;9.222;2022-09-09T00:36:39;5.20;;;1.30;;
20080;SDS011;10200;49.232;9.222;2022-09-09T00:39:08;1.83;;;1.10;;
20080;SDS011;10200;49.232;9.222;2022-09-09T00:47:52;3.13;;;1.70;;
20080;SDS011;10200;49.232;9.222;2022-09-09T00:50:29;2.93;;;1.33;;
20080;SDS011;10200;49.232;9.222;2022-09-09T00:58:22;4.50;;;1.27;;
20080;SDS011;10200;49.232;9.222;2022-09-09T01:00:52;1.83;;;1.10;;
20080;SDS011;10200;49.232;9.222;2022-09-09T01:06:16;6.10;;;1.40;;
20080;SDS011;10200;49.232;9.222;2022-09-09T01:11:49;1.17;;;0.83;;
20080;SDS011;10200;49.232;9.222;2022-09-09T01:17:04;2.23;;;1.50;;
20080;SDS011;10200;49.232;9.222;2022-09-09T01:19:54;3.13;;;0.90;;
20080;SDS011;10200;49.232;9.222;2022-09-09T01:25:18;2.40;;;1.00;;
20080;SDS011;10200;49.232;9.222;2022-09-09T01:28:25;1.67;;;1.03;;
20080;SDS011;10200;49.232;9.222;2022-09-09T01:30:53;2.50;;;1.40;;
20080;SDS011;10200;49.232;9.222;2022-09-09T01:33:19;1.17;;;0.90;;
20080;SDS011;10200;49.232;9.222;2022-09-09T01:38:15;1.93;;;1.10;;
20080;SDS011;10200;49.232;9.222;2022-09-09T01:40:42;1.97;;;1.17;;
20080;SDS011;10200;49.232;9.222;2022-09-09T01:43:08;3.07;;;1.00;;
20080;SDS011;10200;49.232;9.222;2022-09-09T01:45:34;3.20;;;1.40;;
20080;SDS011;10200;49.232;9.222;2022-09-09T01:48:00;3.53;;;1.40;;
20080;SDS011;10200;49.232;9.222;2022-09-09T01:50:28;2.57;;;0.90;;
20080;SDS011;10200;49.232;9.222;2022-09-09T01:52:56;4.03;;;1.10;;
20080;SDS011;10200;49.232;9.222;2022-09-09T01:55:28;1.37;;;1.00;;
20080;SDS011;10200;49.232;9.222;2022-09-09T01:58:06;2.90;;;1.30;;
20080;SDS011;10200;49.232;9.222;2022-09-09T02:00:36;4.10;;;1.53;;
20080;SDS011;10200;49.232;9.222;2022-09-09T02:03:17;3.50;;;1.33;;
20080;SDS011;10200;49.232;9.222;2022-09-09T02:05:54;3.87;;;1.00;;
20080;SDS011;10200;49.232;9.222;2022-09-09T02:08:48;6.93;;;1.73;;
20080;SDS011;10200;49.232;9.222;2022-09-09T02:11:16;1.33;;;0.83;;
20080;SDS011;10200;49.232;9.222;2022-09-09T02:13:44;2.10;;;1.03;;
20080;SDS011;10200;49.232;9.222;2022-09-09T02:18:50;3.93;;;1.00;;
20080;SDS011;10200;49.232;9.222;2022-09-09T02:21:17;1.70;;;1.10;;
20080;SDS011;10200;49.232;9.222;2022-09-09T02:23:43;1.10;;;0.97;;
20080;SDS011;10200;49.232;9.222;2022-09-09T02:26:12;4.53;;;1.50;;
20080;SDS011;10200;49.232;9.222;2022-09-09T02:28:44;1.83;;;1.20;;
20080;SDS011;10200;49.232;9.222;2022-09-09T02:31:11;4.47;;;1.27;;
20080;SDS011;10200;49.232;9.222;2022-09-09T02:33:39;1.50;;;1.17;;
20080;SDS011;10200;49.232;9.222;2022-09-09T02:36:09;2.40;;;1.17;;
20080;SDS011;10200;49.232;9.222;2022-09-09T02:38:38;3.50;;;1.37;;
20080;SDS011;10200;49.232;9.222;2022-09-09T02:41:23;3.17;;;1.30;;
20080;SDS011;10200;49.232;9.222;2022-09-09T02:43:52;3.20;;;1.27;;
20080;SDS011;10200;49.232;9.222;2022-09-09T02:49:06;2.30;;;1.40;;
20080;SDS011;10200;49.232;9.222;2022-09-09T02:51:42;1.27;;;1.00;;
20080;SDS011;10200;49.232;9.222;2022-09-09T02:54:28;4.10;;;1.40;;
20080;SDS011;10200;49.232;9.222;2022-09-09T02:56:55;1.87;;;1.10;;
20080;SDS011;10200;49.232;9.222;2022-09-09T02:59:33;3.23;;;1.13;;
20080;SDS011;10200;49.232;9.222;2022-09-09T03:01:59;1.13;;;0.97;;
20080;SDS011;10200;49.232;9.222;2022-09-09T03:04:25;1.47;;;1.00;;
20080;SDS011;10200;49.232;9.222;2022-09-09T03:06:50;2.80;;;1.00;;
20080;SDS011;10200;49.232;9.222;2022-09-09T03:09:16;2.40;;;1.73;;
20080;SDS011;10200;49.232;9.222;2022-09-09T03:11:42;1.47;;;1.10;;
20080;SDS011;10200;49.232;9.222;2022-09-09T03:14:07;1.37;;;1.10;;
20080;SDS011;10200;49.232;9.222;2022-09-09T03:16:33;5.17;;;1.30;;
20080;SDS011;10200;49.232;9.222;2022-09-09T03:18:59;1.37;;;1.00;;
20080;SDS011;10200;49.232;9.222;2022-09-09T03:21:26;1.03;;;0.93;;
20080;SDS011;10200;49.232;9.222;2022-09-09T03:23:51;1.63;;;1.10;;
20080;SDS011;10200;49.232;9.222;2022-09-09T03:26:17;4.07;;;1.90;;
20080;SDS011;10200;49.232;9.222;2022-09-09T03:28:43;1.73;;;1.40;;
20080;SDS011;10200;49.232;9.222;2022-09-09T03:31:09;3.87;;;1.10;;
20080;SDS011;10200;49.232;9.222;2022-09-09T03:33:36;2.07;;;1.20;;
20080;SDS011;10200;49.232;9.222;2022-09-09T03:36:02;1.63;;;0.90;;
20080;SDS011;10200;49.232;9.222;2022-09-09T03:38:28;1.60;;;1.20;;
20080;SDS011;10200;49.232;9.222;2022-09-09T03:40:54;3.13;;;1.40;;
20080;SDS011;10200;49.232;9.222;2022-09-09T03:43:26;2.50;;;1.57;;
20080;SDS011;10200;49.232;9.222;2022-09-09T03:45:52;1.90;;;1.37;;
20080;SDS011;10200;49.232;9.222;2022-09-09T03:48:21;2.70;;;1.10;;
20080;SDS011;10200;49.232;9.222;2022-09-09T03:50:51;3.37;;;1.30;;
20080;SDS011;10200;49.232;9.222;2022-09-09T03:53:19;5.43;;;1.20;;
20080;SDS011;10200;49.232;9.222;2022-09-09T03:55:51;1.70;;;1.30;;
20080;SDS011;10200;49.232;9.222;2022-09-09T03:58:19;4.10;;;1.50;;
20080;SDS011;10200;49.232;9.222;2022-09-09T04:01:03;2.07;;;1.17;;
20080;SDS011;10200;49.232;9.222;2022-09-09T04:03:29;1.33;;;1.13;;
20080;SDS011;10200;49.232;9.222;2022-09-09T04:05:56;2.93;;;1.40;;
20080;SDS011;10200;49.232;9.222;2022-09-09T04:08:23;1.10;;;1.00;;
20080;SDS011;10200;49.232;9.222;2022-09-09T04:10:52;1.13;;;1.03;;
20080;SDS011;10200;49.232;9.222;2022-09-09T04:13:20;2.27;;;1.40;;
20080;SDS011;10200;49.232;9.222;2022-09-09T04:15:50;2.00;;;1.23;;
20080;SDS011;10200;49.232;9.222;2022-09-09T04:18:20;2.83;;;1.40;;
20080;SDS011;10200;49.232;9.222;2022-09-09T04:20:50;3.73;;;1.23;;
20080;SDS011;10200;49.232;9.222;2022-09-09T04:23:17;6.00;;;1.30;;
20080;SDS011;10200;49.232;9.222;2022-09-09T04:25:47;2.03;;;1.37;;
20080;SDS011;10200;49.232;9.222;2022-09-09T04:28:14;2.63;;;1.30;;
20080;SDS011;10200;49.232;9.222;2022-09-09T04:30:41;1.87;;;1.13;;
20080;SDS011;10200;49.232;9.222;2022-09-09T04:33:07;2.50;;;1.33;;
20080;SDS011;10200;49.232;9.222;2022-09-09T04:35:34;1.27;;;1.17;;
20080;SDS011;10200;49.232;9.222;2022-09-09T04:38:00;3.60;;;1.20;;
20080;SDS011;10200;49.232;9.222;2022-09-09T04:40:27;1.87;;;1.37;;
20080;SDS011;10200;49.232;9.222;2022-09-09T04:42:54;2.03;;;1.40;;
20080;SDS011;10200;49.232;9.222;2022-09-09T04:45:20;3.33;;;1.90;;
20080;SDS011;10200;49.232;9.222;2022-09-09T04:47:46;3.03;;;1.30;;
20080;SDS011;10200;49.232;9.222;2022-09-09T04:50:11;4.13;;;1.10;;
20080;SDS011;10200;49.232;9.222;2022-09-09T04:52:37;1.40;;;1.30;;
20080;SDS011;10200;49.232;9.222;2022-09-09T04:55:03;2.33;;;1.00;;
20080;SDS011;10200;49.232;9.222;2022-09-09T04:57:29;4.57;;;2.00;;
20080;SDS011;10200;49.232;9.222;2022-09-09T04:59:57;2.93;;;1.47;;
20080;SDS011;10200;49.232;9.222;2022-09-09T05:02:24;1.47;;;0.93;;
20080;SDS011;10200;49.232;9.222;2022-09-09T05:04:51;3.37;;;1.20;;
20080;SDS011;10200;49.232;9.222;2022-09-09T05:07:16;2.10;;;1.30;;
20080;SDS011;10200;49.232;9.222;2022-09-09T05:09:42;3.83;;;1.50;;
20080;SDS011;10200;49.232;9.222;2022-09-09T05:12:08;1.67;;;1.50;;
20080;SDS011;10200;49.232;9.222;2022-09-09T05:14:33;2.10;;;1.40;;
20080;SDS011;10200;49.232;9.222;2022-09-09T05:17:01;3.57;;;1.50;;
20080;SDS011;10200;49.232;9.222;2022-09-09T05:19:26;2.40;;;1.20;;
20080;SDS011;10200;49.232;9.222;2022-09-09T05:21:52;2.20;;;1.30;;
20080;SDS011;10200;49.232;9.222;2022-09-09T05:24:18;4.27;;;1.40;;
20080;SDS011;10200;49.232;9.222;2022-09-09T05:26:43;5.27;;;1.70;;
20080;SDS011;10200;49.232;9.222;2022-09-09T05:29:09;3.17;;;1.20;;
20080;SDS011;10200;49.232;9.222;2022-09-09T05:31:35;2.87;;;1.33;;
20080;SDS011;10200;49.232;9.222;2022-09-09T05:34:00;2.37;;;1.17;;
20080;SDS011;10200;49.232;9.222;2022-09-09T05:36:26;2.07;;;1.17;;
20080;SDS011;10200;49.232;9.222;2022-09-09T05:38:52;2.33;;;1.23;;
20080;SDS011;10200;49.232;9.222;2022-09-09T05:41:18;5.40;;;1.30;;
20080;SDS011;10200;49.232;9.222;2022-09-09T05:43:45;2.13;;;1.23;;
20080;SDS011;10200;49.232;9.222;2022-09-09T05:46:12;2.60;;;1.20;;
20080;SDS011;10200;49.232;9.222;2022-09-09T05:48:40;1.17;;;1.07;;
20080;SDS011;10200;49.232;9.222;2022-09-09T05:51:08;2.83;;;1.40;;
20080;SDS011;10200;49.232;9.222;2022-09-09T05:53:38;2.77;;;1.67;;
20080;SDS011;10200;49.232;9.222;2022-09-09T05:56:08;3.30;;;1.10;;
20080;SDS011;10200;49.232;9.222;2022-09-09T05:58:37;3.00;;;1.23;;
20080;SDS011;10200;49.232;9.222;2022-09-09T06:01:07;3.20;;;1.33;;
20080;SDS011;10200;49.232;9.222;2022-09-09T06:03:39;2.50;;;1.20;;
20080;SDS011;10200;49.232;9.222;2022-09-09T06:06:06;3.03;;;1.40;;
20080;SDS011;10200;49.232;9.222;2022-09-09T06:08:34;4.10;;;1.47;;
20080;SDS011;10200;49.232;9.222;2022-09-09T06:11:04;4.20;;;1.67;;
20080;SDS011;10200;49.232;9.222;2022-09-09T06:13:32;4.78;;;1.23;;
20080;SDS011;10200;49.232;9.222;2022-09-09T06:15:58;1.00;;;0.90;;
20080;SDS011;10200;49.232;9.222;2022-09-09T06:18:24;1.35;;;1.05;;
20080;SDS011;10200;49.232;9.222;2022-09-09T06:20:57;2.08;;;1.00;;
20080;SDS011;10200;49.232;9.222;2022-09-09T06:23:26;1.83;;;1.20;;
20080;SDS011;10200;49.232;9.222;2022-09-09T06:26:06;4.35;;;1.40;;
20080;SDS011;10200;49.232;9.222;2022-09-09T06:28:33;3.08;;;1.20;;
20080;SDS011;10200;49.232;9.222;2022-09-09T06:30:59;3.92;;;1.00;;
20080;SDS011;10200;49.232;9.222;2022-09-09T06:33:26;1.92;;;0.98;;
20080;SDS011;10200;49.232;9.222;2022-09-09T06:35:55;4.32;;;1.35;;
20080;SDS011;10200;49.232;9.222;2022-09-09T06:38:22;2.13;;;1.30;;
20080;SDS011;10200;49.232;9.222;2022-09-09T06:40:52;2.25;;;1.10;;
20080;SDS011;10200;49.232;9.222;2022-09-09T06:43:19;1.83;;;1.10;;
20080;SDS011;10200;49.232;9.222;2022-09-09T06:45:52;6.95;;;1.40;;
20080;SDS011;10200;49.232;9.222;2022-09-09T06:48:22;2.90;;;1.30;;
20080;SDS011;10200;49.232;9.222;2022-09-09T06:50:48;3.65;;;1.00;;
20080;SDS011;10200;49.232;9.222;2022-09-09T06:53:17;2.28;;;0.82;;
20080;SDS011;10200;49.232;9.222;2022-09-09T06:55:44;1.95;;;0.80;;
20080;SDS011;10200;49.232;9.222;2022-09-09T06:58:10;1.90;;;0.88;;
20080;SDS011;10200;49.232;9.222;2022-09-09T07:00:36;3.25;;;0.80;;
20080;SDS011;10200;49.232;9.222;2022-09-09T07:03:04;1.13;;;0.70;;
20080;SDS011;10200;49.232;9.222;2022-09-09T07:05:31;0.82;;;0.70;;
20080;SDS011;10200;49.232;9.222;2022-09-09T07:07:57;1.15;;;0.80;;
20080;SDS011;10200;49.232;9.222;2022-09-09T07:10:23;0.82;;;0.60;;
20080;SDS011;10200;49.232;9.222;2022-09-09T07:12:52;4.10;;;1.10;;
20080;SDS011;10200;49.232;9.222;2022-09-09T07:15:18;4.85;;;1.02;;
20080;SDS011;10200;49.232;9.222;2022-09-09T07:17:44;2.45;;;0.88;;
20080;SDS011;10200;49.232;9.222;2022-09-09T07:20:10;3.22;;;1.70;;
20080;SDS011;10200;49.232;9.222;2022-09-09T07:22:36;4.10;;;1.88;;
20080;SDS011;10200;49.232;9.222;2022-09-09T07:25:02;1.38;;;0.68;;
20080;SDS011;10200;49.232;9.222;2022-09-09T07:27:28;3.13;;;0.90;;
20080;SDS011;10200;49.232;9.222;2022-09-09T07:29:55;5.03;;;0.98;;
20080;SDS011;10200;49.232;9.222;2022-09-09T07:32:20;1.02;;;0.93;;
20080;SDS011;10200;49.232;9.222;2022-09-09T07:34:46;3.83;;;1.10;;
20080;SDS011;10200;49.232;9.222;2022-09-09T07:37:12;1.35;;;0.60;;
20080;SDS011;10200;49.232;9.222;2022-09-09T07:39:38;1.55;;;0.65;;
20080;SDS011;10200;49.232;9.222;2022-09-09T07:42:04;4.15;;;1.05;;
20080;SDS011;10200;49.232;9.222;2022-09-09T07:44:30;2.78;;;0.77;;
20080;SDS011;10200;49.232;9.222;2022-09-09T07:46:59;3.30;;;0.80;;
20080;SDS011;10200;49.232;9.222;2022-09-09T07:49:26;0.70;;;0.60;;
20080;SDS011;10200;49.232;9.222;2022-09-09T07:51:51;4.32;;;1.05;;
20080;SDS011;10200;49.232;9.222;2022-09-09T07:54:18;2.05;;;0.70;;
20080;SDS011;10200;49.232;9.222;2022-09-09T07:56:48;2.58;;;0.68;;
20080;SDS011;10200;49.232;9.222;2022-09-09T07:59:15;1.73;;;0.75;;
20080;SDS011;10200;49.232;9.222;2022-09-09T08:01:50;2.80;;;1.00;;
20080;SDS011;10200;49.232;9.222;2022-09-09T08:04:20;2.05;;;0.85;;
20080;SDS011;10200;49.232;9.222;2022-09-09T08:06:47;2.47;;;0.80;;
20080;SDS011;10200;49.232;9.222;2022-09-09T08:09:15;2.53;;;0.70;;
20080;SDS011;10200;49.232;9.222;2022-09-09T08:11:40;2.67;;;0.80;;
20080;SDS011;10200;49.232;9.222;2022-09-09T08:14:07;0.45;;;0.45;;
20080;SDS011;10200;49.232;9.222;2022-09-09T08:16:35;2.97;;;0.93;;
20080;SDS011;10200;49.232;9.222;2022-09-09T08:19:02;1.90;;;0.60;;
20080;SDS011;10200;49.232;9.222;2022-09-09T08:21:30;3.22;;;0.90;;
20080;SDS011;10200;49.232;9.222;2022-09-09T08:23:59;2.63;;;0.70;;
20080;SDS011;10200;49.232;9.222;2022-09-09T08:26:33;3.47;;;0.98;;
20080;SDS011;10200;49.232;9.222;2022-09-09T08:29:02;2.22;;;0.65;;
20080;SDS011;10200;49.232;9.222;2022-09-09T08:33:59;1.42;;;0.50;;
20080;SDS011;10200;49.232;9.222;2022-09-09T08:36:28;2.53;;;1.08;;
20080;SDS011;10200;49.232;9.222;2022-09-09T08:38:56;3.08;;;0.93;;
20080;SDS011;10200;49.232;9.222;2022-09-09T08:44:07;4.13;;;1.20;;
20080;SDS011;10200;49.232;9.222;2022-09-09T08:57:51;2.50;;;0.75;;
20080;SDS011;10200;49.232;9.222;2022-09-09T09:00:19;3.42;;;0.73;;
20080;SDS011;10200;49.232;9.222;2022-09-09T09:10:46;5.38;;;0.75;;
20080;SDS011;10200;49.232;9.222;2022-09-09T09:13:15;2.30;;;0.70;;
20080;SDS011;10200;49.232;9.222;2022-09-09T09:15:55;3.90;;;0.90;;
20080;SDS011;10200;49.232;9.222;2022-09-09T09:18:25;3.15;;;0.80;;
20080;SDS011;10200;49.232;9.222;2022-09-09T09:20:58;1.83;;;0.60;;
20080;SDS011;10200;49.232;9.222;2022-09-09T09:26:37;4.30;;;1.08;;
20080;SDS011;10200;49.232;9.222;2022-09-09T09:31:58;2.17;;;0.75;;
20080;SDS011;10200;49.232;9.222;2022-09-09T09:34:27;4.57;;;1.17;;
20080;SDS011;10200;49.232;9.222;2022-09-09T09:39:27;1.25;;;0.70;;
20080;SDS011;10200;49.232;9.222;2022-09-09T09:42:14;3.65;;;0.80;;
20080;SDS011;10200;49.232;9.222;2022-09-09T09:44:42;5.68;;;0.90;;
20080;SDS011;10200;49.232;9.222;2022-09-09T09:47:21;2.42;;;1.00;;
20080;SDS011;10200;49.232;9.222;2022-09-09T09:49:55;0.90;;;0.30;;
20080;SDS011;10200;49.232;9.222;2022-09-09T09:52:24;1.02;;;0.50;;
20080;SDS011;10200;49.232;9.222;2022-09-09T09:54:55;3.08;;;0.40;;
20080;SDS011;10200;49.232;9.222;2022-09-09T09:57:28;2.10;;;0.60;;
20080;SDS011;10200;49.232;9.222;2022-09-09T10:02:39;0.60;;;0.57;;
20080;SDS011;10200;49.232;9.222;2022-09-09T10:08:10;2.75;;;0.50;;
20080;SDS011;10200;49.232;9.222;2022-09-09T10:16:50;1.83;;;0.70;;
20080;SDS011;10200;49.232;9.222;2022-09-09T10:33:17;2.78;;;0.50;;
20080;SDS011;10200;49.232;9.222;2022-09-09T10:38:40;2.08;;;0.55;;
20080;SDS011;10200;49.232;9.222;2022-09-09T10:41:18;2.38;;;0.70;;
20080;SDS011;10200;49.232;9.222;2022-09-09T10:52:35;0.75;;;0.50;;
20080;SDS011;10200;49.232;9.222;2022-09-09T10:55:14;0.63;;;0.40;;
20080;SDS011;10200;49.232;9.222;2022-09-09T10:57:47;1.17;;;0.30;;
20080;SDS011;10200;49.232;9.222;2022-09-09T11:03:04;1.25;;;0.43;;
20080;SDS011;10200;49.232;9.222;2022-09-09T11:13:11;1.42;;;0.50;;
20080;SDS011;10200;49.232;9.222;2022-09-09T11:15:46;1.42;;;0.60;;
20080;SDS011;10200;49.232;9.222;2022-09-09T11:18:19;1.45;;;0.52;;
20080;SDS011;10200;49.232;9.222;2022-09-09T11:20:47;0.98;;;0.40;;
20080;SDS011;10200;49.232;9.222;2022-09-09T11:23:17;0.90;;;0.40;;
20080;SDS011;10200;49.232;9.222;2022-09-09T11:25:54;1.30;;;0.47;;
20080;SDS011;10200;49.232;9.222;2022-09-09T11:31:21;2.13;;;0.70;;
20080;SDS011;10200;49.232;9.222;2022-09-09T11:39:48;1.95;;;0.45;;
20080;SDS011;10200;49.232;9.222;2022-09-09T11:42:45;4.57;;;0.70;;
20080;SDS011;10200;49.232;9.222;2022-09-09T11:45:22;1.58;;;0.60;;
20080;SDS011;10200;49.232;9.222;2022-09-09T11:47:54;1.83;;;0.50;;
20080;SDS011;10200;49.232;9.222;2022-09-09T11:52:49;4.50;;;0.47;;
20080;SDS011;10200;49.232;9.222;2022-09-09T11:55:26;1.30;;;0.50;;
20080;SDS011;10200;49.232;9.222;2022-09-09T11:58:02;2.03;;;0.60;;
20080;SDS011;10200;49.232;9.222;2022-09-09T12:03:32;2.78;;;1.08;;
20080;SDS011;10200;49.232;9.222;2022-09-09T12:06:08;1.15;;;0.77;;
20080;SDS011;10200;49.232;9.222;2022-09-09T12:09:38;2.08;;;0.40;;
20080;SDS011;10200;49.232;9.222;2022-09-09T12:12:04;2.17;;;0.60;;
20080;SDS011;10200;49.232;9.222;2022-09-09T12:17:50;1.73;;;0.60;;
20080;SDS011;10200;49.232;9.222;2022-09-09T12:20:34;3.33;;;0.95;;
20080;SDS011;10200;49.232;9.222;2022-09-09T12:23:44;0.30;;;0.30;;
20080;SDS011;10200;49.232;9.222;2022-09-09T12:33:36;0.80;;;0.40;;
20080;SDS011;10200;49.232;9.222;2022-09-09T12:36:12;4.30;;;0.98;;
20080;SDS011;10200;49.232;9.222;2022-09-09T12:38:48;0.95;;;0.45;;
20080;SDS011;10200;49.232;9.222;2022-09-09T12:41:18;0.85;;;0.40;;
20080;SDS011;10200;49.232;9.222;2022-09-09T12:43:47;1.35;;;0.52;;
20080;SDS011;10200;49.232;9.222;2022-09-09T12:46:21;0.43;;;0.40;;
20080;SDS011;10200;49.232;9.222;2022-09-09T12:48:58;1.42;;;0.50;;
20080;SDS011;10200;49.232;9.222;2022-09-09T12:51:28;3.40;;;0.43;;
20080;SDS011;10200;49.232;9.222;2022-09-09T12:53:55;1.35;;;0.40;;
20080;SDS011;10200;49.232;9.222;2022-09-09T12:56:31;0.75;;;0.30;;
20080;SDS011;10200;49.232;9.222;2022-09-09T12:58:57;2.03;;;0.93;;
20080;SDS011;10200;49.232;9.222;2022-09-09T13:03:50;1.45;;;0.70;;
20080;SDS011;10200;49.232;9.222;2022-09-09T13:06:27;1.15;;;0.50;;
20080;SDS011;10200;49.232;9.222;2022-09-09T13:08:55;2.03;;;0.47;;
20080;SDS011;10200;49.232;9.222;2022-09-09T13:13:58;0.30;;;0.28;;
20080;SDS011;10200;49.232;9.222;2022-09-09T13:16:32;0.75;;;0.32;;
20080;SDS011;10200;49.232;9.222;2022-09-09T13:19:00;1.10;;;0.47;;
20080;SDS011;10200;49.232;9.222;2022-09-09T13:21:32;1.02;;;0.70;;
20080;SDS011;10200;49.232;9.222;2022-09-09T13:23:59;1.63;;;0.70;;
20080;SDS011;10200;49.232;9.222;2022-09-09T13:26:28;1.52;;;0.63;;
20080;SDS011;10200;49.232;9.222;2022-09-09T13:28:55;3.35;;;0.50;;
20080;SDS011;10200;49.232;9.222;2022-09-09T13:31:33;3.05;;;0.88;;
20080;SDS011;10200;49.232;9.222;2022-09-09T13:34:10;1.98;;;0.60;;
20080;SDS011;10200;49.232;9.222;2022-09-09T13:36:52;1.50;;;0.45;;
20080;SDS011;10200;49.232;9.222;2022-09-09T13:39:23;2.10;;;0.55;;
20080;SDS011;10200;49.232;9.222;2022-09-09T13:41:49;2.30;;;0.70;;
20080;SDS011;10200;49.232;9.222;2022-09-09T13:44:20;2.45;;;0.50;;
20080;SDS011;10200;49.232;9.222;2022-09-09T13:47:03;2.75;;;0.77;;
20080;SDS011;10200;49.232;9.222;2022-09-09T13:49:30;1.92;;;0.50;;
20080;SDS011;10200;49.232;9.222;2022-09-09T13:54:41;2.40;;;0.85;;
20080;SDS011;10200;49.232;9.222;2022-09-09T13:59:50;1.13;;;0.50;;
20080;SDS011;10200;49.232;9.222;2022-09-09T14:02:17;2.38;;;0.70;;
20080;SDS011;10200;49.232;9.222;2022-09-09T14:04:43;2.20;;;0.55;;
20080;SDS011;10200;49.232;9.222;2022-09-09T14:07:13;3.15;;;0.80;;
20080;SDS011;10200;49.232;9.222;2022-09-09T14:09:40;2.50;;;0.50;;
20080;SDS011;10200;49.232;9.222;2022-09-09T14:12:10;1.60;;;0.70;;
20080;SDS011;10200;49.232;9.222;2022-09-09T14:14:37;2.17;;;0.93;;
20080;SDS011;10200;49.232;9.222;2022-09-09T14:17:03;3.08;;;0.60;;
20080;SDS011;10200;49.232;9.222;2022-09-09T14:19:29;2.80;;;0.65;;
20080;SDS011;10200;49.232;9.222;2022-09-09T14:21:56;1.55;;;0.60;;
20080;SDS011;10200;49.232;9.222;2022-09-09T14:24:22;3.83;;;0.50;;
20080;SDS011;10200;49.232;9.222;2022-09-09T14:26:47;0.95;;;0.55;;
20080;SDS011;10200;49.232;9.222;2022-09-09T14:29:13;2.35;;;0.30;;
20080;SDS011;10200;49.232;9.222;2022-09-09T14:31:39;3.03;;;0.70;;
20080;SDS011;10200;49.232;9.222;2022-09-09T14:34:04;1.80;;;0.40;;
20080;SDS011;10200;49.232;9.222;2022-09-09T14:36:31;1.20;;;0.50;;
20080;SDS011;10200;49.232;9.222;2022-09-09T14:38:56;0.77;;;0.52;;
20080;SDS011;10200;49.232;9.222;2022-09-09T14:41:22;0.65;;;0.40;;
20080;SDS011;10200;49.232;9.222;2022-09-09T14:43:48;0.55;;;0.47;;
20080;SDS011;10200;49.232;9.222;2022-09-09T14:46:16;1.58;;;0.70;;
20080;SDS011;10200;49.232;9.222;2022-09-09T14:48:43;0.88;;;0.40;;
20080;SDS011;10200;49.232;9.222;2022-09-09T14:51:11;0.98;;;0.60;;
20080;SDS011;10200;49.232;9.222;2022-09-09T14:53:40;4.30;;;0.75;;
20080;SDS011;10200;49.232;9.222;2022-09-09T14:56:10;1.77;;;0.50;;
20080;SDS011;10200;49.232;9.222;2022-09-09T14:58:40;0.45;;;0.45;;
20080;SDS011;10200;49.232;9.222;2022-09-09T15:01:10;1.52;;;0.50;;
20080;SDS011;10200;49.232;9.222;2022-09-09T15:03:37;1.23;;;0.45;;
20080;SDS011;10200;49.232;9.222;2022-09-09T15:06:05;1.38;;;0.50;;
20080;SDS011;10200;49.232;9.222;2022-09-09T15:08:35;1.65;;;0.50;;
20080;SDS011;10200;49.232;9.222;2022-09-09T15:11:03;2.22;;;0.50;;
20080;SDS011;10200;49.232;9.222;2022-09-09T15:13:30;1.73;;;0.50;;
20080;SDS011;10200;49.232;9.222;2022-09-09T15:15:55;3.92;;;0.82;;
20080;SDS011;10200;49.232;9.222;2022-09-09T15:18:22;0.45;;;0.45;;
20080;SDS011;10200;49.232;9.222;2022-09-09T15:20:48;1.42;;;0.60;;
20080;SDS011;10200;49.232;9.222;2022-09-09T15:23:14;2.80;;;0.40;;
20080;SDS011;10200;49.232;9.222;2022-09-09T15:25:51;1.50;;;0.45;;
20080;SDS011;10200;49.232;9.222;2022-09-09T15:28:21;0.40;;;0.40;;
20080;SDS011;10200;49.232;9.222;2022-09-09T15:30:48;2.58;;;0.50;;
20080;SDS011;10200;49.232;9.222;2022-09-09T15:33:14;3.78;;;0.75;;
20080;SDS011;10200;49.232;9.222;2022-09-09T15:35:40;0.35;;;0.30;;
20080;SDS011;10200;49.232;9.222;2022-09-09T15:38:05;2.20;;;0.45;;
20080;SDS011;10200;49.232;9.222;2022-09-09T15:40:31;0.57;;;0.40;;
20080;SDS011;10200;49.232;9.222;2022-09-09T15:42:59;0.90;;;0.50;;
20080;SDS011;10200;49.232;9.222;2022-09-09T15:45:25;0.52;;;0.40;;
20080;SDS011;10200;49.232;9.222;2022-09-09T15:47:51;0.30;;;0.30;;
20080;SDS011;10200;49.232;9.222;2022-09-09T15:50:17;0.98;;;0.47;;
20080;SDS011;10200;49.232;9.222;2022-09-09T15:52:43;0.75;;;0.50;;
20080;SDS011;10200;49.232;9.222;2022-09-09T15:55:09;0.93;;;0.60;;
20080;SDS011;10200;49.232;9.222;2022-09-09T15:57:34;2.47;;;0.82;;
20080;SDS011;10200;49.232;9.222;2022-09-09T16:00:01;2.45;;;0.70;;
20080;SDS011;10200;49.232;9.222;2022-09-09T16:02:28;1.52;;;0.63;;
20080;SDS011;10200;49.232;9.222;2022-09-09T16:04:55;1.63;;;0.80;;
20080;SDS011;10200;49.232;9.222;2022-09-09T16:07:22;1.00;;;0.60;;
20080;SDS011;10200;49.232;9.222;2022-09-09T16:09:48;1.25;;;0.85;;
20080;SDS011;10200;49.232;9.222;2022-09-09T16:12:16;1.73;;;0.68;;
20080;SDS011;10200;49.232;9.222;2022-09-09T16:14:42;4.25;;;0.68;;
20080;SDS011;10200;49.232;9.222;2022-09-09T16:17:07;1.48;;;0.75;;
20080;SDS011;10200;49.232;9.222;2022-09-09T16:19:33;1.55;;;0.52;;
20080;SDS011;10200;49.232;9.222;2022-09-09T16:21:59;3.03;;;0.80;;
20080;SDS011;10200;49.232;9.222;2022-09-09T16:24:25;5.55;;;0.88;;
20080;SDS011;10200;49.232;9.222;2022-09-09T16:26:51;3.58;;;0.60;;
20080;SDS011;10200;49.232;9.222;2022-09-09T16:29:19;1.13;;;0.60;;
20080;SDS011;10200;49.232;9.222;2022-09-09T16:31:46;0.40;;;0.40;;
20080;SDS011;10200;49.232;9.222;2022-09-09T16:34:13;1.10;;;0.88;;
20080;SDS011;10200;49.232;9.222;2022-09-09T16:36:40;1.67;;;1.00;;
20080;SDS011;10200;49.232;9.222;2022-09-09T16:39:11;1.50;;;0.65;;
20080;SDS011;10200;49.232;9.222;2022-09-09T16:41:41;0.77;;;0.65;;
20080;SDS011;10200;49.232;9.222;2022-09-09T16:44:09;1.00;;;0.60;;
20080;SDS011;10200;49.232;9.222;2022-09-09T16:46:36;2.90;;;0.60;;
20080;SDS011;10200;49.232;9.222;2022-09-09T16:49:04;2.75;;;1.00;;
20080;SDS011;10200;49.232;9.222;2022-09-09T16:51:36;1.20;;;0.50;;
20080;SDS011;10200;49.232;9.222;2022-09-09T16:54:04;1.50;;;0.50;;
20080;SDS011;10200;49.232;9.222;2022-09-09T16:56:35;2.80;;;0.57;;
20080;SDS011;10200;49.232;9.222;2022-09-09T16:59:06;0.30;;;0.30;;
20080;SDS011;10200;49.232;9.222;2022-09-09T17:01:36;1.80;;;0.70;;
20080;SDS011;10200;49.232;9.222;2022-09-09T17:04:06;1.15;;;0.55;;
20080;SDS011;10200;49.232;9.222;2022-09-09T17:06:38;1.00;;;0.50;;
20080;SDS011;10200;49.232;9.222;2022-09-09T17:09:10;0.35;;;0.35;;
20080;SDS011;10200;49.232;9.222;2022-09-09T17:11:37;1.95;;;0.45;;
20080;SDS011;10200;49.232;9.222;2022-09-09T17:14:04;3.88;;;0.73;;
20080;SDS011;10200;49.232;9.222;2022-09-09T17:16:32;0.93;;;0.60;;
20080;SDS011;10200;49.232;9.222;2022-09-09T17:19:02;1.23;;;0.50;;
20080;SDS011;10200;49.232;9.222;2022-09-09T17:21:29;4.28;;;1.13;;
20080;SDS011;10200;49.232;9.222;2022-09-09T17:23:56;0.80;;;0.40;;
20080;SDS011;10200;49.232;9.222;2022-09-09T17:26:22;0.52;;;0.30;;
20080;SDS011;10200;49.232;9.222;2022-09-09T17:28:52;1.75;;;0.63;;
20080;SDS011;10200;49.232;9.222;2022-09-09T17:31:18;1.95;;;0.40;;
20080;SDS011;10200;49.232;9.222;2022-09-09T17:33:45;0.70;;;0.45;;
20080;SDS011;10200;49.232;9.222;2022-09-09T17:38:43;5.25;;;0.75;;
20080;SDS011;10200;49.232;9.222;2022-09-09T17:43:36;2.13;;;0.47;;
20080;SDS011;10200;49.232;9.222;2022-09-09T17:48:36;2.25;;;0.98;;
20080;SDS011;10200;49.232;9.222;2022-09-09T17:51:03;1.63;;;1.20;;